createdAt,value
2022-12-24T09:54:35.695Z,72.30
2022-12-24T09:57:17.387Z,72.00
2022-12-24T09:59:47.726Z,71.80
2022-12-24T10:02:20.030Z,71.90
2022-12-24T10:04:49.461Z,70.80
2022-12-24T10:08:12.053Z,71.10
2022-12-24T10:11:20.043Z,69.80
2022-12-24T10:14:41.600Z,69.80
2022-12-24T10:18:12.247Z,69.10
2022-12-24T10:21:44.769Z,68.80
2022-12-24T10:24:38.105Z,68.40
2022-12-24T10:27:19.177Z,68.60
2022-12-24T10:29:57.430Z,67.80
2022-12-24T10:32:33.084Z,67.90
2022-12-24T10:35:15.340Z,67.70
2022-12-24T10:37:49.927Z,66.50
2022-12-24T10:40:48.490Z,66.30
2022-12-24T10:43:28.242Z,65.40
2022-12-24T10:46:37.829Z,65.90
2022-12-24T10:49:17.761Z,65.30
2022-12-24T10:52:10.548Z,65.60
2022-12-24T10:54:40.513Z,65.40
2022-12-24T10:57:26.955Z,65.40
2022-12-24T10:59:56.585Z,64.40
2022-12-24T11:02:37.003Z,64.90
2022-12-24T11:05:27.648Z,63.80
2022-12-24T11:08:21.341Z,64.20
2022-12-24T11:11:21.157Z,64.90
2022-12-24T11:13:51.237Z,64.40
2022-12-24T11:16:36.572Z,63.30
2022-12-24T11:19:15.746Z,63.70
2022-12-24T11:21:43.585Z,64.30
2022-12-24T11:24:13.670Z,64.70
2022-12-24T11:26:44.653Z,65.10
2022-12-24T11:29:27.089Z,64.10
2022-12-24T11:32:31.161Z,65.10
2022-12-24T11:35:28.802Z,64.70
2022-12-24T11:38:07.669Z,64.50
2022-12-24T11:40:48.524Z,64.60
2022-12-24T11:43:22.102Z,65.20
2022-12-24T11:45:57.933Z,65.10
2022-12-24T11:48:33.134Z,64.10
2022-12-24T11:51:17.904Z,64.80
2022-12-24T11:54:07.996Z,64.90
2022-12-24T11:56:52.283Z,64.80
2022-12-24T11:59:43.910Z,65.80
2022-12-24T12:02:33.558Z,64.90
2022-12-24T12:05:21.374Z,65.40
2022-12-24T12:07:56.338Z,64.80
2022-12-24T12:10:33.854Z,65.50
2022-12-24T12:13:15.712Z,66.10
2022-12-24T12:16:26.576Z,65.30
2022-12-24T12:19:08.739Z,65.00
2022-12-24T12:21:47.356Z,65.80
2022-12-24T12:24:32.385Z,66.50
2022-12-24T12:27:44.127Z,66.20
2022-12-24T12:30:20.555Z,66.00
2022-12-24T12:33:23.532Z,65.70
2022-12-24T12:35:51.545Z,65.80
2022-12-24T12:38:29.257Z,66.50
2022-12-24T12:42:07.654Z,66.20
2022-12-24T12:45:30.937Z,66.90
2022-12-24T12:49:00.272Z,67.90
2022-12-24T12:52:35.248Z,67.50
2022-12-24T12:55:32.713Z,67.60
2022-12-24T12:58:37.629Z,68.10
2022-12-24T13:01:40.148Z,67.60
2022-12-24T13:05:06.325Z,67.60
2022-12-24T13:08:03.291Z,66.90
2022-12-24T13:11:25.023Z,67.70
2022-12-24T13:14:44.386Z,67.10
2022-12-24T13:18:18.787Z,67.60
2022-12-24T13:20:51.843Z,68.00
2022-12-24T13:23:26.395Z,68.50
2022-12-24T13:25:58.710Z,68.10
2022-12-24T13:28:25.745Z,69.10
2022-12-24T13:31:02.068Z,70.30
2022-12-24T13:33:38.030Z,73.60
2022-12-24T13:36:16.857Z,72.50
2022-12-24T13:38:57.790Z,72.50
2022-12-24T13:41:39.279Z,73.80
2022-12-24T13:44:13.540Z,73.70
2022-12-24T13:47:13.054Z,74.20
2022-12-24T13:49:51.318Z,74.80
2022-12-24T13:52:32.002Z,74.40
2022-12-24T13:55:15.362Z,74.70
2022-12-24T13:58:05.865Z,74.50
2022-12-24T14:01:00.500Z,74.80
2022-12-24T14:03:59.810Z,75.20
2022-12-24T14:06:40.208Z,75.50
2022-12-24T14:09:25.061Z,76.00
2022-12-24T14:12:04.547Z,79.00
2022-12-24T14:14:41.061Z,76.70
2022-12-24T14:17:29.751Z,76.40
2022-12-24T14:20:01.887Z,78.60
2022-12-24T14:22:39.070Z,77.00
2022-12-24T14:25:32.863Z,77.40
2022-12-24T14:28:15.203Z,77.00
2022-12-24T14:30:42.507Z,76.90
2022-12-24T14:33:35.086Z,76.10
2022-12-24T14:36:03.258Z,77.00
2022-12-24T14:38:31.136Z,78.30
2022-12-24T14:41:51.535Z,77.20
2022-12-24T14:45:25.352Z,76.10
2022-12-24T14:48:42.730Z,76.00
2022-12-24T14:51:59.114Z,76.20
2022-12-24T14:54:43.992Z,74.10
2022-12-24T14:57:11.098Z,75.50
2022-12-24T15:00:02.232Z,74.30
2022-12-24T15:02:52.504Z,74.70
2022-12-24T15:05:29.649Z,75.70
2022-12-24T15:08:19.289Z,76.40
2022-12-24T15:10:54.457Z,77.00
2022-12-24T15:13:38.870Z,76.80
2022-12-24T15:16:14.088Z,77.30
2022-12-24T15:19:01.293Z,77.70
2022-12-24T15:21:43.994Z,77.90
2022-12-24T15:24:43.487Z,78.10
2022-12-24T15:27:26.630Z,77.80
2022-12-24T15:29:58.327Z,78.00
2022-12-24T15:32:26.010Z,77.80
2022-12-24T15:34:56.000Z,78.10
2022-12-24T15:37:31.275Z,78.10
2022-12-24T15:40:23.987Z,78.00
2022-12-24T15:42:52.324Z,77.50
2022-12-24T15:45:32.138Z,77.60
2022-12-24T15:48:09.949Z,77.20
2022-12-24T15:50:50.139Z,76.60
2022-12-24T15:53:37.254Z,76.60
2022-12-24T15:56:36.678Z,77.00
2022-12-24T15:59:15.988Z,77.40
2022-12-24T16:01:45.821Z,78.10
2022-12-24T16:04:27.722Z,78.40
2022-12-24T16:07:03.124Z,78.40
2022-12-24T16:09:45.792Z,78.10
2022-12-24T16:12:24.530Z,78.30
2022-12-24T16:15:00.476Z,78.50
2022-12-24T16:17:33.952Z,77.60
2022-12-24T16:20:16.553Z,77.70
2022-12-24T16:22:47.878Z,78.30
2022-12-24T16:25:30.646Z,77.50
2022-12-24T16:28:00.615Z,77.60
2022-12-24T16:30:28.441Z,77.60
2022-12-24T16:32:55.755Z,77.60
2022-12-24T16:35:33.458Z,77.10
2022-12-24T16:38:00.784Z,77.00
2022-12-24T16:40:28.428Z,76.60
2022-12-24T16:43:16.418Z,76.60
2022-12-24T16:45:46.501Z,76.40
2022-12-24T16:48:25.661Z,76.40
2022-12-24T16:50:54.167Z,75.80
2022-12-24T16:53:23.268Z,75.70
2022-12-24T16:55:51.845Z,75.40
2022-12-24T16:58:20.417Z,75.40
2022-12-24T17:00:48.222Z,75.20
2022-12-24T17:03:15.775Z,75.50
2022-12-24T17:05:45.094Z,75.60
2022-12-24T17:08:13.586Z,76.20
2022-12-24T17:10:49.338Z,76.80
2022-12-24T17:13:16.644Z,78.00
2022-12-24T17:15:43.971Z,79.00
2022-12-24T17:18:11.306Z,79.70
2022-12-24T17:20:38.599Z,80.60
